Jasper, AL (35504)

11:32 PM CDT on October 01, 2014 (GMT -0500)
BranchWater Estates | Change Station
CLOSE
Current Station
Personal Weather Station
Location: JASPER, AL
Elevation: 480 ft
Nearby Weather Stations

Elev 480 ft 33.86 °N, 87.24 °W | Updated 7 seconds ago

Clear
Clear
66.3 °F
Feels Like 66.3 °F
N
1.0
Wind Variable Wind from WSW
Gusts 0.0 mph

Today
High -- | Low -- °F
--% Chance of Precip.
Yesterday
High -- | Low -- °F
Precip. -- in
6:43 AM 6:33 PM
First Quarter, 54% visible
Pressure 29.93 in
Visibility 5.0 miles
Clouds Clear
Dew Point 61 °F
Humidity 83%
Rainfall 0.00 in
Snow Depth Not available.
UV 0 out of 12
Pollen 5.80 out of 12
Ozone Good
PM2.5 Moderate
Flu Activity Not available.
METAR KJFX 010415Z AUTO 00000KT 5SM BR CLR 16/16 A2993 RMK A02 P-128

More Conditions Fewer Conditions

Pressure 29.93 in
Visibility 5.0 miles
Clouds Clear
Dew Point 61 °F
Humidity 83%
Rainfall 0.00 in
Snow Depth Not available.
UV 0 out of 12
Pollen 5.80 out of 12
Ozone Good
PM2.5 Moderate
Flu Activity Not available.
METAR KJFX 010415Z AUTO 00000KT 5SM BR CLR 16/16 A2993 RMK A02 P-128

More Conditions Fewer Conditions

10-Day Weather Forecast

Almanac

Astronomy

Oct. 01, 2014 Rise Set
Actual Time 6:43 AM CDT 6:33 PM CDT
Civil Twilight 6:18 AM CDT 6:57 PM CDT
Nautical Twilight 5:49 AM CDT 7:26 PM CDT
Astronomical Twilight 5:20 AM CDT 7:55 PM CDT
Moon 1:32 PM CDT (10/1) No Moon Set
Length of Visible Light 12h 39m
Length of Day
11h 49m
Tomorrow will be 2m 4s shorter.
First Quarter, 54% of the Moon is Illuminated
Oct 2
First Quarter
Oct 8
Full
Oct 15
Last Quarter
Oct 23
New
Oct 30
First Quarter

Yesterday's Extremes

State Highs State Lows

Community

WunderPhotos

Upload Photos

1,758,187 photos uploaded!

Nearby

Air Quality

  Air Quality AQ Index Pollutant
Yesterday Good
PM10
Yesterday Good
OZONE
Current Moderate
PM2.5
Current Good
OZONE
Wednesday Moderate
PM2.5
Wednesday Good
OZONE
Thursday Moderate
PM2.5
Thursday Good
OZONE

Snow Depth

Station Depth Elevation
No new snow has been reported.

Earthquake Activity

City Distance Mag. Time & Date
No recent earthquake activity has been reported nearby.
Minimum magnitude displayed is 2.5.

Coastal Water Temperatures

Place Temperature
No Stations Reporting

Nearby Weather Stations